createdAt,value
2019-03-12T00:01:06.984Z,1.3
2019-03-12T00:06:13.016Z,1.1
2019-03-12T00:11:18.576Z,1.2
2019-03-12T00:16:24.366Z,1.3
2019-03-12T00:21:30.115Z,1.2
2019-03-12T00:26:35.327Z,1.3
2019-03-12T00:31:41.210Z,1.1
2019-03-12T00:36:44.931Z,1.1
2019-03-12T00:41:50.793Z,1.2
2019-03-12T00:46:56.667Z,1.2
2019-03-12T00:52:02.668Z,1
2019-03-12T00:57:08.707Z,1.3
2019-03-12T01:02:14.511Z,1
2019-03-12T01:07:19.959Z,0.9
2019-03-12T01:12:25.325Z,1.2
2019-03-12T01:17:31.206Z,1
2019-03-12T01:22:36.754Z,1
2019-03-12T01:27:42.537Z,1.2
2019-03-12T01:32:47.898Z,0.9
2019-03-12T01:37:53.001Z,1
2019-03-12T01:42:58.925Z,0.8
2019-03-12T01:48:04.795Z,1
2019-03-12T01:53:10.468Z,0.9
2019-03-12T01:58:16.550Z,0.9
2019-03-12T02:03:21.735Z,0.9
2019-03-12T02:08:28.089Z,0.9
2019-03-12T02:13:33.752Z,0.8
2019-03-12T02:18:39.542Z,0.9
2019-03-12T02:23:44.805Z,0.9
2019-03-12T02:28:50.482Z,0.9
2019-03-12T02:33:56.209Z,0.9
2019-03-12T02:39:00.968Z,1
2019-03-12T02:44:07.351Z,0.9
2019-03-12T02:49:12.834Z,0.7
2019-03-12T02:54:18.821Z,0.9
2019-03-12T02:59:24.787Z,0.8
2019-03-12T03:04:30.253Z,0.8
2019-03-12T03:09:35.831Z,0.8
2019-03-12T03:14:41.671Z,0.8
2019-03-12T03:19:47.773Z,0.8
2019-03-12T03:24:52.211Z,0.8
2019-03-12T03:29:58.571Z,0.9
2019-03-12T03:35:04.922Z,0.7
2019-03-12T03:40:11.356Z,0.8
2019-03-12T03:45:15.613Z,0.8
2019-03-12T03:50:20.930Z,1
2019-03-12T03:55:25.984Z,0.7
2019-03-12T04:00:31.890Z,0.8
2019-03-12T04:05:37.195Z,0.8
2019-03-12T04:10:42.493Z,0.6
2019-03-12T04:15:47.965Z,0.8
2019-03-12T04:20:53.942Z,0.7
2019-03-12T04:25:59.090Z,0.7
2019-03-12T04:31:04.664Z,0.7
2019-03-12T04:36:10.159Z,0.7
2019-03-12T04:41:15.995Z,0.8
2019-03-12T04:46:22.025Z,0.7
2019-03-12T04:51:27.426Z,0.6
2019-03-12T04:56:32.472Z,0.7
2019-03-12T05:01:38.467Z,0.9
2019-03-12T05:06:44.259Z,0.7
2019-03-12T05:11:49.773Z,0.7
2019-03-12T05:16:54.839Z,0.7
2019-03-12T05:22:00.436Z,0.8
2019-03-12T05:27:06.115Z,0.7
2019-03-12T05:32:11.611Z,0.8
2019-03-12T05:37:16.556Z,1.1
2019-03-12T05:42:21.618Z,1
2019-03-12T05:47:26.952Z,1.1
2019-03-12T05:52:32.833Z,0.9
2019-03-12T05:57:37.977Z,1.3
2019-03-12T06:02:44.061Z,1
2019-03-12T06:07:49.398Z,1.2
2019-03-12T06:12:54.985Z,1.1
2019-03-12T06:18:00.759Z,1.2
2019-03-12T06:23:04.584Z,1.1
2019-03-12T06:28:09.496Z,1.1
2019-03-12T06:33:14.696Z,1.3
2019-03-12T06:38:20.562Z,1
2019-03-12T06:43:26.043Z,1.1
2019-03-12T06:48:31.392Z,1
2019-03-12T06:53:37.843Z,1.1
2019-03-12T06:58:41.525Z,1.1
2019-03-12T07:03:47.784Z,1.2
2019-03-12T07:08:52.763Z,1.3
2019-03-12T07:13:58.106Z,1.2
2019-03-12T07:19:03.572Z,1.4
2019-03-12T07:24:13.035Z,4.6
2019-03-12T07:29:19.324Z,5.7
2019-03-12T07:34:37.204Z,6.4
2019-03-12T07:39:33.153Z,6.6
2019-03-12T07:44:38.728Z,6
2019-03-12T07:49:44.710Z,5.7
2019-03-12T07:54:50.629Z,5.5
2019-03-12T07:59:55.927Z,5.6
2019-03-12T08:05:01.554Z,5.7
2019-03-12T08:10:07.229Z,5.3
2019-03-12T08:15:23.940Z,5.3
2019-03-12T08:20:19.309Z,5.6
2019-03-12T08:25:24.213Z,5.1
2019-03-12T08:30:29.580Z,5.1
2019-03-12T08:35:34.953Z,5.2
2019-03-12T08:40:52.987Z,5
2019-03-12T08:45:49.900Z,4.8
2019-03-12T08:50:55.182Z,4.8
2019-03-12T08:56:00.381Z,4.6
2019-03-12T09:01:05.379Z,4.6
2019-03-12T09:06:11.413Z,4.8
2019-03-12T09:11:15.650Z,4.8
2019-03-12T09:16:21.539Z,4.5
2019-03-12T09:21:27.309Z,4.3
2019-03-12T09:26:32.872Z,4.4
2019-03-12T09:31:37.828Z,3.9
2019-03-12T09:36:42.896Z,4
2019-03-12T09:41:48.356Z,4.2
2019-03-12T09:46:54.295Z,3.8
2019-03-12T09:51:58.566Z,3.5
2019-03-12T09:57:03.947Z,4
2019-03-12T10:02:09.000Z,3.9
2019-03-12T10:07:14.216Z,3.7
2019-03-12T10:12:18.660Z,4
2019-03-12T10:17:24.551Z,3.3
2019-03-12T10:22:29.694Z,3.7
2019-03-12T10:27:35.445Z,3.1
2019-03-12T10:32:40.720Z,3.2
2019-03-12T10:37:46.389Z,3.2
2019-03-12T10:42:51.356Z,3.8
2019-03-12T10:47:55.520Z,3.1
2019-03-12T10:53:01.558Z,3.8
2019-03-12T10:58:06.904Z,3.7
2019-03-12T11:03:12.582Z,2.9
2019-03-12T11:08:19.200Z,3.3
2019-03-12T11:13:25.152Z,3.3
2019-03-12T11:18:30.458Z,3.8
2019-03-12T11:23:36.135Z,4
2019-03-12T11:28:41.835Z,3.5
2019-03-12T11:33:46.930Z,3.6
2019-03-12T11:38:52.867Z,3.3
2019-03-12T11:44:01.932Z,3
2019-03-12T11:49:06.675Z,3.2
2019-03-12T11:54:12.346Z,3.2
2019-03-12T11:59:16.873Z,3.3
2019-03-12T12:04:22.047Z,2.7
2019-03-12T12:09:27.700Z,2.8
2019-03-12T12:14:33.167Z,2.9
2019-03-12T12:19:39.498Z,2.8
2019-03-12T12:24:45.124Z,2.4
2019-03-12T12:29:51.055Z,2.7
2019-03-12T12:34:56.884Z,2.4
2019-03-12T12:40:02.744Z,2.9
2019-03-12T12:45:06.727Z,2.4
2019-03-12T12:50:12.916Z,2.3
2019-03-12T12:55:19.143Z,2.4
2019-03-12T13:00:24.535Z,2.3
2019-03-12T13:05:30.416Z,2.1
2019-03-12T13:10:36.001Z,2.1
2019-03-12T13:15:41.121Z,2.2
2019-03-12T13:20:45.683Z,2.1
2019-03-12T13:25:50.454Z,2.6
2019-03-12T13:30:56.354Z,2.2
2019-03-12T13:36:02.023Z,2
2019-03-12T13:41:08.303Z,2
2019-03-12T13:46:13.931Z,2.1
2019-03-12T13:51:18.440Z,2.3
2019-03-12T13:56:24.410Z,2.1
2019-03-12T14:01:30.702Z,2.3
2019-03-12T14:06:38.441Z,2.2
2019-03-12T14:11:43.794Z,14.5
2019-03-12T14:16:49.532Z,9.6
2019-03-12T14:21:55.208Z,8.2
2019-03-12T14:27:00.885Z,7.5
2019-03-12T14:32:06.854Z,6.6
2019-03-12T14:37:16.049Z,6.1
2019-03-12T14:42:20.431Z,6
2019-03-12T14:47:25.996Z,5.6
2019-03-12T14:52:31.302Z,6
2019-03-12T14:57:37.660Z,5.3
2019-03-12T15:02:43.645Z,5
2019-03-12T15:07:48.781Z,5.2
2019-03-12T15:12:54.361Z,4.7
2019-03-12T15:17:58.303Z,4.9
2019-03-12T15:23:03.851Z,2.8
2019-03-12T15:28:11.979Z,2.7
2019-03-12T15:33:17.322Z,2.5
2019-03-12T15:38:23.009Z,2.3
2019-03-12T15:43:28.674Z,2.2
2019-03-12T15:48:34.149Z,2.4
2019-03-12T15:53:39.515Z,2.1
2019-03-12T15:58:44.613Z,1.8
2019-03-12T16:03:50.399Z,1.9
2019-03-12T16:08:55.302Z,1.9
2019-03-12T16:14:00.542Z,1.7
2019-03-12T16:19:06.211Z,2
2019-03-12T16:24:11.923Z,1.9
2019-03-12T16:29:21.681Z,1.7
2019-03-12T16:34:26.788Z,1.9
2019-03-12T16:39:31.956Z,1.8
2019-03-12T16:44:37.368Z,2.1
2019-03-12T16:49:42.678Z,1.9
2019-03-12T16:54:50.273Z,2.1
2019-03-12T16:59:57.714Z,1.8
2019-03-12T17:05:04.921Z,2
2019-03-12T17:10:11.119Z,1.9
2019-03-12T17:15:17.215Z,2.1
2019-03-12T17:20:22.851Z,1.9
2019-03-12T17:25:28.192Z,2.6
2019-03-12T17:30:33.629Z,2.1
2019-03-12T17:35:39.849Z,2.3
2019-03-12T17:40:43.747Z,1.8
2019-03-12T17:45:49.531Z,2.2
2019-03-12T17:50:55.566Z,1.9
2019-03-12T17:56:01.768Z,2
2019-03-12T18:01:07.485Z,2.6
2019-03-12T18:06:13.150Z,2.4
2019-03-12T18:11:19.210Z,2
2019-03-12T18:16:25.167Z,2.2
2019-03-12T18:21:34.312Z,2.1
2019-03-12T18:26:42.383Z,2.1
2019-03-12T18:31:46.013Z,2.2
2019-03-12T18:36:51.501Z,1.8
2019-03-12T18:41:56.912Z,1.9
2019-03-12T18:47:02.903Z,2.2
2019-03-12T18:52:08.276Z,1.9
2019-03-12T18:57:14.538Z,2
2019-03-12T19:02:19.808Z,2.1
2019-03-12T19:07:24.884Z,19.9
2019-03-12T19:12:29.963Z,13.2
2019-03-12T19:17:33.474Z,11.5
2019-03-12T19:22:38.401Z,11
2019-03-12T19:27:43.885Z,10.5
2019-03-12T19:32:53.379Z,9.3
2019-03-12T19:37:58.679Z,8.9
2019-03-12T19:43:04.963Z,7.7
2019-03-12T19:48:10.915Z,7.7
2019-03-12T19:53:16.592Z,7.8
2019-03-12T19:58:22.254Z,7.4
2019-03-12T20:03:27.994Z,7.2
2019-03-12T20:08:33.362Z,7.4
2019-03-12T20:13:39.492Z,6.9
2019-03-12T20:18:44.969Z,6.7
2019-03-12T20:23:50.307Z,6.9
2019-03-12T20:28:55.951Z,6.9
2019-03-12T20:34:00.975Z,6.9
2019-03-12T20:39:06.260Z,6.9
2019-03-12T20:44:14.645Z,6
2019-03-12T20:49:19.730Z,4.9
2019-03-12T20:54:25.045Z,4.5
2019-03-12T20:59:30.378Z,4.4
2019-03-12T21:04:35.513Z,4.3
2019-03-12T21:09:41.580Z,4.1
2019-03-12T21:14:46.641Z,3.7
2019-03-12T21:19:54.633Z,3.7
2019-03-12T21:24:59.839Z,3.6
2019-03-12T21:30:05.537Z,2.9
2019-03-12T21:35:10.279Z,3.1
2019-03-12T21:40:14.921Z,3.2
2019-03-12T21:45:20.312Z,2.8
2019-03-12T21:50:25.365Z,2.4
2019-03-12T21:55:31.187Z,2.4
2019-03-12T22:00:36.933Z,3.2
2019-03-12T22:31:06.711Z,3.2
2019-03-12T22:36:12.211Z,3.2
2019-03-12T22:41:18.058Z,3.4
2019-03-12T22:46:23.719Z,3.2
2019-03-12T22:51:29.700Z,3
2019-03-12T22:56:35.174Z,3.2
2019-03-12T23:01:40.981Z,2.9
2019-03-12T23:06:46.389Z,3
2019-03-12T23:11:51.390Z,3.2
2019-03-12T23:16:57.201Z,2.8
2019-03-12T23:22:03.090Z,2.8
2019-03-12T23:27:09.388Z,2.8
2019-03-12T23:32:15.275Z,2.4
2019-03-12T23:37:20.737Z,2.3
2019-03-12T23:42:26.241Z,2.4
2019-03-12T23:47:32.683Z,2.6
2019-03-12T23:52:38.561Z,2.3
2019-03-12T23:57:44.483Z,2.3
